sensor_id;sensor_type;location;lat;lon;timestamp;pressure;altitude;pressure_sealevel;temperature;humidity
21902;BME280;11115;46.038;14.612;2022-12-15T00:02:39;97225.63;;;-1.56;100.00
21902;BME280;11115;46.038;14.612;2022-12-15T00:05:25;97227.88;;;-1.47;100.00
21902;BME280;11115;46.038;14.612;2022-12-15T00:08:15;97227.72;;;-1.31;100.00
21902;BME280;11115;46.038;14.612;2022-12-15T00:11:01;97199.69;;;-1.41;100.00
21902;BME280;11115;46.038;14.612;2022-12-15T00:13:47;97230.47;;;-1.20;100.00
21902;BME280;11115;46.038;14.612;2022-12-15T00:16:33;97224.13;;;-1.36;100.00
21902;BME280;11115;46.038;14.612;2022-12-15T00:19:18;97224.13;;;-1.36;100.00
21902;BME280;11115;46.038;14.612;2022-12-15T00:22:04;97223.56;;;-1.43;100.00
21902;BME280;11115;46.038;14.612;2022-12-15T00:24:50;97234.75;;;-1.30;100.00
21902;BME280;11115;46.038;14.612;2022-12-15T00:27:35;97236.94;;;-1.32;100.00
21902;BME280;11115;46.038;14.612;2022-12-15T00:30:21;97243.94;;;-1.36;100.00
21902;BME280;11115;46.038;14.612;2022-12-15T00:33:10;97246.63;;;-1.41;100.00
21902;BME280;11115;46.038;14.612;2022-12-15T00:35:59;97238.00;;;-1.33;100.00
21902;BME280;11115;46.038;14.612;2022-12-15T00:38:45;97244.81;;;-1.25;100.00
21902;BME280;11115;46.038;14.612;2022-12-15T00:41:15;97248.63;;;-1.21;100.00
21902;BME280;11115;46.038;14.612;2022-12-15T00:43:44;97259.72;;;-1.33;100.00
21902;BME280;11115;46.038;14.612;2022-12-15T00:46:12;97260.41;;;-1.52;100.00
21902;BME280;11115;46.038;14.612;2022-12-15T00:48:58;97253.25;;;-1.69;100.00
21902;BME280;11115;46.038;14.612;2022-12-15T00:51:26;97266.94;;;-1.48;100.00
21902;BME280;11115;46.038;14.612;2022-12-15T00:54:12;97249.22;;;-1.61;100.00
21902;BME280;11115;46.038;14.612;2022-12-15T00:56:57;97270.75;;;-1.44;100.00
21902;BME280;11115;46.038;14.612;2022-12-15T00:59:42;97274.16;;;-1.59;100.00
21902;BME280;11115;46.038;14.612;2022-12-15T01:02:27;97272.00;;;-1.57;100.00
21902;BME280;11115;46.038;14.612;2022-12-15T01:05:12;97286.66;;;-1.58;100.00
21902;BME280;11115;46.038;14.612;2022-12-15T01:07:58;97292.59;;;-1.61;100.00
21902;BME280;11115;46.038;14.612;2022-12-15T01:10:44;97292.41;;;-1.87;100.00
21902;BME280;11115;46.038;14.612;2022-12-15T01:13:29;97296.50;;;-1.84;100.00
21902;BME280;11115;46.038;14.612;2022-12-15T01:16:15;97305.56;;;-1.68;100.00
21902;BME280;11115;46.038;14.612;2022-12-15T01:19:00;97314.13;;;-1.81;100.00
21902;BME280;11115;46.038;14.612;2022-12-15T01:21:46;97310.69;;;-1.72;100.00
21902;BME280;11115;46.038;14.612;2022-12-15T01:24:15;97323.03;;;-1.86;100.00
21902;BME280;11115;46.038;14.612;2022-12-15T01:26:42;97323.75;;;-1.96;100.00
21902;BME280;11115;46.038;14.612;2022-12-15T01:29:10;97305.78;;;-2.07;100.00
21902;BME280;11115;46.038;14.612;2022-12-15T01:31:38;97331.53;;;-2.04;100.00
21902;BME280;11115;46.038;14.612;2022-12-15T01:34:06;97326.25;;;-2.16;100.00
21902;BME280;11115;46.038;14.612;2022-12-15T01:36:33;97335.16;;;-1.94;100.00
21902;BME280;11115;46.038;14.612;2022-12-15T01:39:01;97350.78;;;-2.06;100.00
21902;BME280;11115;46.038;14.612;2022-12-15T01:41:29;97351.31;;;-2.04;100.00
21902;BME280;11115;46.038;14.612;2022-12-15T01:44:22;97358.25;;;-2.13;100.00
21902;BME280;11115;46.038;14.612;2022-12-15T01:46:53;97356.28;;;-1.96;100.00
21902;BME280;11115;46.038;14.612;2022-12-15T01:49:24;97360.81;;;-1.74;100.00
21902;BME280;11115;46.038;14.612;2022-12-15T01:51:57;97362.50;;;-1.95;100.00
21902;BME280;11115;46.038;14.612;2022-12-15T01:54:43;97367.28;;;-2.07;100.00
21902;BME280;11115;46.038;14.612;2022-12-15T01:57:19;97363.28;;;-1.73;100.00
21902;BME280;11115;46.038;14.612;2022-12-15T01:59:53;97361.75;;;-1.59;100.00
21902;BME280;11115;46.038;14.612;2022-12-15T02:02:27;97354.25;;;-1.51;100.00
21902;BME280;11115;46.038;14.612;2022-12-15T02:05:00;97337.19;;;-1.79;100.00
21902;BME280;11115;46.038;14.612;2022-12-15T02:07:29;97354.00;;;-1.77;100.00
21902;BME280;11115;46.038;14.612;2022-12-15T02:09:59;97360.81;;;-1.74;100.00
21902;BME280;11115;46.038;14.612;2022-12-15T02:18:23;97363.53;;;-2.01;100.00
21902;BME280;11115;46.038;14.612;2022-12-15T02:21:19;97370.38;;;-1.94;100.00
21902;BME280;11115;46.038;14.612;2022-12-15T02:24:28;97374.75;;;-1.93;100.00
21902;BME280;11115;46.038;14.612;2022-12-15T02:27:14;97373.41;;;-1.63;100.00
21902;BME280;11115;46.038;14.612;2022-12-15T02:35:35;97379.50;;;-1.78;100.00
21902;BME280;11115;46.038;14.612;2022-12-15T02:38:03;97376.84;;;-1.73;100.00
21902;BME280;11115;46.038;14.612;2022-12-15T02:40:31;97372.06;;;-1.61;100.00
21902;BME280;11115;46.038;14.612;2022-12-15T02:43:00;97370.53;;;-1.51;100.00
21902;BME280;11115;46.038;14.612;2022-12-15T02:45:54;97372.25;;;-1.72;100.00
21902;BME280;11115;46.038;14.612;2022-12-15T02:48:30;97378.66;;;-1.78;100.00
21902;BME280;11115;46.038;14.612;2022-12-15T02:51:34;97387.78;;;-1.63;100.00
21902;BME280;11115;46.038;14.612;2022-12-15T02:55:09;97383.78;;;-1.82;100.00
21902;BME280;11115;46.038;14.612;2022-12-15T02:57:26;97397.28;;;-1.60;100.00
21902;BME280;11115;46.038;14.612;2022-12-15T03:00:03;97391.09;;;-1.56;100.00
21902;BME280;11115;46.038;14.612;2022-12-15T03:02:32;97398.91;;;-1.59;100.00
21902;BME280;11115;46.038;14.612;2022-12-15T03:05:04;97397.13;;;-1.48;100.00
21902;BME280;11115;46.038;14.612;2022-12-15T03:07:32;97397.31;;;-1.55;100.00
21902;BME280;11115;46.038;14.612;2022-12-15T03:10:02;97392.72;;;-1.55;100.00
21902;BME280;11115;46.038;14.612;2022-12-15T03:12:30;97399.03;;;-1.49;100.00
21902;BME280;11115;46.038;14.612;2022-12-15T03:14:58;97404.44;;;-1.49;100.00
21902;BME280;11115;46.038;14.612;2022-12-15T03:17:26;97387.50;;;-1.61;100.00
21902;BME280;11115;46.038;14.612;2022-12-15T03:19:53;97407.59;;;-1.57;100.00
21902;BME280;11115;46.038;14.612;2022-12-15T03:22:21;97410.53;;;-1.64;100.00
21902;BME280;11115;46.038;14.612;2022-12-15T03:24:49;97409.16;;;-1.66;100.00
21902;BME280;11115;46.038;14.612;2022-12-15T03:27:17;97418.81;;;-1.75;100.00
21902;BME280;11115;46.038;14.612;2022-12-15T03:29:44;97413.91;;;-1.78;100.00
21902;BME280;11115;46.038;14.612;2022-12-15T03:32:12;97415.25;;;-1.81;100.00
21902;BME280;11115;46.038;14.612;2022-12-15T03:34:40;97412.97;;;-1.67;100.00
21902;BME280;11115;46.038;14.612;2022-12-15T03:37:08;97403.81;;;-1.56;100.00
21902;BME280;11115;46.038;14.612;2022-12-15T03:39:36;97408.66;;;-1.63;100.00
21902;BME280;11115;46.038;14.612;2022-12-15T03:42:04;97410.44;;;-1.74;100.00
21902;BME280;11115;46.038;14.612;2022-12-15T03:44:31;97422.66;;;-1.98;100.00
21902;BME280;11115;46.038;14.612;2022-12-15T03:46:59;97418.69;;;-1.91;100.00
21902;BME280;11115;46.038;14.612;2022-12-15T03:49:29;97423.91;;;-1.84;100.00
21902;BME280;11115;46.038;14.612;2022-12-15T03:51:57;97414.81;;;-1.95;100.00
21902;BME280;11115;46.038;14.612;2022-12-15T03:54:24;97416.53;;;-1.89;100.00
21902;BME280;11115;46.038;14.612;2022-12-15T03:56:52;97403.97;;;-1.73;100.00
21902;BME280;11115;46.038;14.612;2022-12-15T03:59:20;97412.28;;;-1.79;100.00
21902;BME280;11115;46.038;14.612;2022-12-15T04:01:47;97410.38;;;-1.79;100.00
21902;BME280;11115;46.038;14.612;2022-12-15T04:04:15;97420.53;;;-1.69;100.00
21902;BME280;11115;46.038;14.612;2022-12-15T04:06:43;97425.69;;;-1.68;100.00
21902;BME280;11115;46.038;14.612;2022-12-15T04:09:11;97436.84;;;-1.64;100.00
21902;BME280;11115;46.038;14.612;2022-12-15T04:11:39;97444.56;;;-1.51;100.00
21902;BME280;11115;46.038;14.612;2022-12-15T04:14:08;97446.63;;;-1.63;100.00
21902;BME280;11115;46.038;14.612;2022-12-15T04:16:36;97445.38;;;-1.77;100.00
21902;BME280;11115;46.038;14.612;2022-12-15T04:19:03;97441.66;;;-1.71;100.00
21902;BME280;11115;46.038;14.612;2022-12-15T04:21:48;97442.31;;;-1.59;100.00
21902;BME280;11115;46.038;14.612;2022-12-15T04:24:16;97431.94;;;-1.67;100.00
21902;BME280;11115;46.038;14.612;2022-12-15T04:27:01;97463.50;;;-1.56;100.00
21902;BME280;11115;46.038;14.612;2022-12-15T04:29:46;97460.66;;;-1.71;100.00
21902;BME280;11115;46.038;14.612;2022-12-15T04:32:31;97463.34;;;-1.71;100.00
21902;BME280;11115;46.038;14.612;2022-12-15T04:35:16;97470.34;;;-1.75;100.00
21902;BME280;11115;46.038;14.612;2022-12-15T04:38:02;97477.22;;;-1.68;100.00
21902;BME280;11115;46.038;14.612;2022-12-15T04:40:47;97477.09;;;-1.78;100.00
21902;BME280;11115;46.038;14.612;2022-12-15T04:43:32;97470.16;;;-1.69;100.00
21902;BME280;11115;46.038;14.612;2022-12-15T04:46:17;97471.78;;;-1.68;100.00
21902;BME280;11115;46.038;14.612;2022-12-15T04:49:03;97474.59;;;-1.58;100.00
21902;BME280;11115;46.038;14.612;2022-12-15T04:51:48;97482.84;;;-1.47;100.00
21902;BME280;11115;46.038;14.612;2022-12-15T04:54:32;97487.34;;;-1.58;100.00
21902;BME280;11115;46.038;14.612;2022-12-15T04:57:18;97493.69;;;-1.47;100.00
21902;BME280;11115;46.038;14.612;2022-12-15T05:00:03;97494.66;;;-1.59;100.00
21902;BME280;11115;46.038;14.612;2022-12-15T05:02:49;97499.78;;;-1.62;100.00
21902;BME280;11115;46.038;14.612;2022-12-15T05:05:40;97509.84;;;-1.58;100.00
21902;BME280;11115;46.038;14.612;2022-12-15T05:08:25;97521.13;;;-1.71;100.00
21902;BME280;11115;46.038;14.612;2022-12-15T05:11:11;97518.41;;;-1.71;100.00
21902;BME280;11115;46.038;14.612;2022-12-15T05:13:57;97521.25;;;-1.56;100.00
21902;BME280;11115;46.038;14.612;2022-12-15T05:16:42;97513.47;;;-1.52;100.00
21902;BME280;11115;46.038;14.612;2022-12-15T05:19:27;97517.13;;;-1.36;100.00
21902;BME280;11115;46.038;14.612;2022-12-15T05:22:12;97518.97;;;-1.42;100.00
21902;BME280;11115;46.038;14.612;2022-12-15T05:24:57;97514.66;;;-1.38;100.00
21902;BME280;11115;46.038;14.612;2022-12-15T05:27:42;97510.75;;;-1.25;100.00
21902;BME280;11115;46.038;14.612;2022-12-15T05:30:27;97506.25;;;-1.14;100.00
21902;BME280;11115;46.038;14.612;2022-12-15T05:33:13;97497.72;;;-1.23;100.00
21902;BME280;11115;46.038;14.612;2022-12-15T05:35:40;97490.69;;;-1.19;100.00
21902;BME280;11115;46.038;14.612;2022-12-15T05:38:08;97499.03;;;-1.31;100.00
21902;BME280;11115;46.038;14.612;2022-12-15T05:40:36;97504.03;;;-1.44;100.00
21902;BME280;11115;46.038;14.612;2022-12-15T05:43:04;97508.53;;;-1.55;100.00
21902;BME280;11115;46.038;14.612;2022-12-15T05:45:31;97504.63;;;-1.37;100.00
21902;BME280;11115;46.038;14.612;2022-12-15T05:47:59;97504.63;;;-1.37;100.00
21902;BME280;11115;46.038;14.612;2022-12-15T05:50:27;97515.56;;;-1.32;100.00
21902;BME280;11115;46.038;14.612;2022-12-15T05:52:57;97525.13;;;-1.25;100.00
21902;BME280;11115;46.038;14.612;2022-12-15T05:55:24;97518.31;;;-1.27;100.00
21902;BME280;11115;46.038;14.612;2022-12-15T05:57:53;97531.94;;;-1.22;100.00
21902;BME280;11115;46.038;14.612;2022-12-15T06:00:21;97532.69;;;-1.27;100.00
21902;BME280;11115;46.038;14.612;2022-12-15T06:02:49;97536.72;;;-1.02;100.00
21902;BME280;11115;46.038;14.612;2022-12-15T06:05:17;97535.94;;;-0.98;100.00
21902;BME280;11115;46.038;14.612;2022-12-15T06:07:44;97550.25;;;-1.07;100.00
21902;BME280;11115;46.038;14.612;2022-12-15T06:10:12;97545.19;;;-0.99;100.00
21902;BME280;11115;46.038;14.612;2022-12-15T06:12:40;97545.91;;;-1.08;100.00
21902;BME280;11115;46.038;14.612;2022-12-15T06:15:08;97549.59;;;-1.19;100.00
21902;BME280;11115;46.038;14.612;2022-12-15T06:17:36;97554.72;;;-1.23;100.00
21902;BME280;11115;46.038;14.612;2022-12-15T06:20:04;97540.94;;;-1.16;100.00
21902;BME280;11115;46.038;14.612;2022-12-15T06:22:32;97552.38;;;-1.14;100.00
21902;BME280;11115;46.038;14.612;2022-12-15T06:24:59;97545.06;;;-1.14;100.00
21902;BME280;11115;46.038;14.612;2022-12-15T06:27:27;97548.94;;;-1.05;100.00
21902;BME280;11115;46.038;14.612;2022-12-15T06:29:55;97570.78;;;-1.16;100.00
21902;BME280;11115;46.038;14.612;2022-12-15T06:32:22;97579.69;;;-1.21;100.00
21902;BME280;11115;46.038;14.612;2022-12-15T06:34:50;97584.06;;;-1.20;100.00
21902;BME280;11115;46.038;14.612;2022-12-15T06:37:18;97571.59;;;-1.16;100.00
21902;BME280;11115;46.038;14.612;2022-12-15T06:39:45;97571.72;;;-1.06;100.00
21902;BME280;11115;46.038;14.612;2022-12-15T06:42:13;97575.72;;;-1.13;100.00
21902;BME280;11115;46.038;14.612;2022-12-15T06:44:41;97576.03;;;-1.10;100.00
21902;BME280;11115;46.038;14.612;2022-12-15T06:47:08;97580.13;;;-1.07;100.00
21902;BME280;11115;46.038;14.612;2022-12-15T06:49:36;97568.44;;;-1.08;100.00
21902;BME280;11115;46.038;14.612;2022-12-15T06:52:04;97574.38;;;-1.11;100.00
21902;BME280;11115;46.038;14.612;2022-12-15T06:54:32;97562.28;;;-1.25;100.00
21902;BME280;11115;46.038;14.612;2022-12-15T06:56:59;97560.66;;;-1.26;100.00
21902;BME280;11115;46.038;14.612;2022-12-15T06:59:27;97575.66;;;-1.18;100.00
21902;BME280;11115;46.038;14.612;2022-12-15T07:01:56;97584.34;;;-1.16;100.00
21902;BME280;11115;46.038;14.612;2022-12-15T07:04:24;97586.09;;;-1.05;100.00
21902;BME280;11115;46.038;14.612;2022-12-15T07:06:52;97595.06;;;-1.05;100.00
21902;BME280;11115;46.038;14.612;2022-12-15T07:09:19;97605.09;;;-1.05;100.00
21902;BME280;11115;46.038;14.612;2022-12-15T07:11:47;97613.78;;;-1.08;100.00
21902;BME280;11115;46.038;14.612;2022-12-15T07:14:16;97629.28;;;-1.04;100.00
21902;BME280;11115;46.038;14.612;2022-12-15T07:16:44;97631.56;;;-0.96;100.00
21902;BME280;11115;46.038;14.612;2022-12-15T07:19:12;97625.25;;;-1.01;100.00
21902;BME280;11115;46.038;14.612;2022-12-15T07:21:40;97614.06;;;-1.05;100.00
21902;BME280;11115;46.038;14.612;2022-12-15T07:24:09;97613.59;;;-0.97;100.00
21902;BME280;11115;46.038;14.612;2022-12-15T07:26:39;97609.31;;;-0.93;100.00
21902;BME280;11115;46.038;14.612;2022-12-15T07:29:08;97623.25;;;-0.84;100.00
21902;BME280;11115;46.038;14.612;2022-12-15T07:31:37;97619.75;;;-0.79;100.00
21902;BME280;11115;46.038;14.612;2022-12-15T07:34:05;97622.59;;;-0.96;100.00
21902;BME280;11115;46.038;14.612;2022-12-15T07:36:32;97633.94;;;-0.99;100.00
21902;BME280;11115;46.038;14.612;2022-12-15T07:39:00;97620.06;;;-1.03;100.00
21902;BME280;11115;46.038;14.612;2022-12-15T07:41:30;97646.59;;;-0.83;100.00
21902;BME280;11115;46.038;14.612;2022-12-15T07:43:58;97644.72;;;-0.82;100.00
21902;BME280;11115;46.038;14.612;2022-12-15T07:46:25;97639.31;;;-0.77;100.00
21902;BME280;11115;46.038;14.612;2022-12-15T07:48:54;97651.94;;;-0.93;100.00
21902;BME280;11115;46.038;14.612;2022-12-15T07:51:22;97652.19;;;-0.95;100.00
21902;BME280;11115;46.038;14.612;2022-12-15T07:53:50;97667.50;;;-0.83;100.00
21902;BME280;11115;46.038;14.612;2022-12-15T07:56:18;97653.22;;;-0.74;100.00
21902;BME280;11115;46.038;14.612;2022-12-15T07:58:46;97663.13;;;-0.89;100.00
21902;BME280;11115;46.038;14.612;2022-12-15T08:01:15;97661.72;;;-0.65;100.00
21902;BME280;11115;46.038;14.612;2022-12-15T08:03:43;97664.69;;;-0.67;100.00
21902;BME280;11115;46.038;14.612;2022-12-15T08:06:13;97659.25;;;-0.67;100.00
21902;BME280;11115;46.038;14.612;2022-12-15T08:08:42;97646.03;;;-0.58;100.00
21902;BME280;11115;46.038;14.612;2022-12-15T08:11:18;97652.78;;;-0.61;100.00
21902;BME280;11115;46.038;14.612;2022-12-15T08:13:47;97670.53;;;-0.53;100.00
21902;BME280;11115;46.038;14.612;2022-12-15T08:16:29;97675.75;;;-0.46;100.00
21902;BME280;11115;46.038;14.612;2022-12-15T08:18:57;97674.72;;;-0.40;100.00
21902;BME280;11115;46.038;14.612;2022-12-15T08:21:24;97681.44;;;-0.48;100.00
21902;BME280;11115;46.038;14.612;2022-12-15T08:23:52;97685.53;;;-0.45;100.00
21902;BME280;11115;46.038;14.612;2022-12-15T08:26:20;97679.06;;;-0.39;100.00
21902;BME280;11115;46.038;14.612;2022-12-15T08:28:55;97685.41;;;-0.34;100.00
21902;BME280;11115;46.038;14.612;2022-12-15T08:31:43;97688.41;;;-0.30;100.00
21902;BME280;11115;46.038;14.612;2022-12-15T08:34:11;97685.44;;;-0.28;100.00
21902;BME280;11115;46.038;14.612;2022-12-15T08:36:39;97685.66;;;-0.35;100.00
21902;BME280;11115;46.038;14.612;2022-12-15T08:39:07;97682.31;;;-0.42;100.00
21902;BME280;11115;46.038;14.612;2022-12-15T08:41:35;97671.38;;;-0.52;100.00
21902;BME280;11115;46.038;14.612;2022-12-15T08:44:03;97686.28;;;-0.55;100.00
21902;BME280;11115;46.038;14.612;2022-12-15T08:46:32;97697.88;;;-0.38;100.00
21902;BME280;11115;46.038;14.612;2022-12-15T08:49:01;97688.63;;;-0.37;100.00
21902;BME280;11115;46.038;14.612;2022-12-15T08:51:31;97681.22;;;-0.41;100.00
21902;BME280;11115;46.038;14.612;2022-12-15T08:53:59;97695.47;;;-0.29;100.00
21902;BME280;11115;46.038;14.612;2022-12-15T08:56:27;97689.91;;;-0.44;100.00
21902;BME280;11115;46.038;14.612;2022-12-15T08:58:58;97712.75;;;-0.40;100.00
21902;BME280;11115;46.038;14.612;2022-12-15T09:01:27;97708.41;;;-0.41;100.00
21902;BME280;11115;46.038;14.612;2022-12-15T09:03:57;97711.22;;;-0.31;100.00
21902;BME280;11115;46.038;14.612;2022-12-15T09:06:31;97731.16;;;-0.20;100.00
21902;BME280;11115;46.038;14.612;2022-12-15T09:09:01;97736.41;;;-0.14;100.00
21902;BME280;11115;46.038;14.612;2022-12-15T09:11:29;97740.50;;;-0.11;100.00
21902;BME280;11115;46.038;14.612;2022-12-15T09:13:57;97713.34;;;-0.65;100.00
21902;BME280;11115;46.038;14.612;2022-12-15T09:16:26;97755.13;;;-0.17;100.00
21902;BME280;11115;46.038;14.612;2022-12-15T09:18:56;97762.78;;;-0.14;100.00
21902;BME280;11115;46.038;14.612;2022-12-15T09:21:26;97694.19;;;-0.53;100.00
21902;BME280;11115;46.038;14.612;2022-12-15T09:23:57;97766.81;;;-0.17;100.00
21902;BME280;11115;46.038;14.612;2022-12-15T09:26:31;97775.53;;;-0.15;100.00
21902;BME280;11115;46.038;14.612;2022-12-15T09:28:59;97797.84;;;-0.13;100.00
21902;BME280;11115;46.038;14.612;2022-12-15T09:31:30;97803.94;;;-0.01;100.00
21902;BME280;11115;46.038;14.612;2022-12-15T09:33:59;97812.41;;;0.03;100.00
21902;BME280;11115;46.038;14.612;2022-12-15T09:36:28;97799.47;;;0.15;100.00
21902;BME280;11115;46.038;14.612;2022-12-15T09:38:58;97793.81;;;0.22;100.00
21902;BME280;11115;46.038;14.612;2022-12-15T09:41:29;97787.34;;;0.28;100.00
21902;BME280;11115;46.038;14.612;2022-12-15T09:44:05;97774.56;;;0.28;100.00
21902;BME280;11115;46.038;14.612;2022-12-15T09:52:06;97774.38;;;0.40;100.00
21902;BME280;11115;46.038;14.612;2022-12-15T09:54:37;97772.94;;;0.33;100.00
21902;BME280;11115;46.038;14.612;2022-12-15T09:57:32;97775.91;;;0.26;100.00
21902;BME280;11115;46.038;14.612;2022-12-15T10:08:10;97765.81;;;0.58;100.00
21902;BME280;11115;46.038;14.612;2022-12-15T10:10:51;97764.47;;;0.66;100.00
21902;BME280;11115;46.038;14.612;2022-12-15T10:13:30;97750.88;;;0.66;100.00
21902;BME280;11115;46.038;14.612;2022-12-15T10:16:07;97736.91;;;0.57;100.00
21902;BME280;11115;46.038;14.612;2022-12-15T10:18:49;97741.34;;;0.69;100.00
21902;BME280;11115;46.038;14.612;2022-12-15T10:21:28;97724.31;;;0.41;100.00
21902;BME280;11115;46.038;14.612;2022-12-15T10:24:15;97712.94;;;0.49;100.00
21902;BME280;11115;46.038;14.612;2022-12-15T10:27:26;97716.03;;;0.68;100.00
21902;BME280;11115;46.038;14.612;2022-12-15T10:30:03;97727.19;;;0.62;100.00
21902;BME280;11115;46.038;14.612;2022-12-15T10:35:23;97713.28;;;0.58;100.00
21902;BME280;11115;46.038;14.612;2022-12-15T10:40:55;97715.78;;;0.70;100.00
21902;BME280;11115;46.038;14.612;2022-12-15T10:43:45;97716.75;;;0.53;100.00
21902;BME280;11115;46.038;14.612;2022-12-15T10:46:27;97721.06;;;0.44;100.00
21902;BME280;11115;46.038;14.612;2022-12-15T10:51:44;97718.94;;;0.56;100.00
21902;BME280;11115;46.038;14.612;2022-12-15T10:54:14;97721.75;;;0.67;100.00
21902;BME280;11115;46.038;14.612;2022-12-15T10:56:58;97714.66;;;0.66;100.00
21902;BME280;11115;46.038;14.612;2022-12-15T10:59:32;97726.03;;;0.57;100.00
21902;BME280;11115;46.038;14.612;2022-12-15T11:02:33;97728.84;;;0.73;100.00
21902;BME280;11115;46.038;14.612;2022-12-15T11:05:08;97742.25;;;0.79;100.00
21902;BME280;11115;46.038;14.612;2022-12-15T11:07:54;97728.81;;;0.63;100.00
21902;BME280;11115;46.038;14.612;2022-12-15T11:10:32;97710.13;;;0.81;100.00
21902;BME280;11115;46.038;14.612;2022-12-15T11:13:21;97721.03;;;0.86;100.00
21902;BME280;11115;46.038;14.612;2022-12-15T11:15:52;97727.84;;;0.84;100.00
21902;BME280;11115;46.038;14.612;2022-12-15T11:18:52;97714.56;;;0.98;100.00
21902;BME280;11115;46.038;14.612;2022-12-15T11:21:29;97722.69;;;0.93;100.00
21902;BME280;11115;46.038;14.612;2022-12-15T11:24:21;97707.25;;;1.13;100.00
21902;BME280;11115;46.038;14.612;2022-12-15T11:27:25;97705.69;;;1.33;100.00
21902;BME280;11115;46.038;14.612;2022-12-15T11:30:19;97698.03;;;1.19;100.00
21902;BME280;11115;46.038;14.612;2022-12-15T11:32:50;97685.72;;;1.12;100.00
21902;BME280;11115;46.038;14.612;2022-12-15T11:35:32;97680.06;;;1.24;100.00
21902;BME280;11115;46.038;14.612;2022-12-15T11:40:53;97685.50;;;1.18;100.00
21902;BME280;11115;46.038;14.612;2022-12-15T11:46:19;97685.72;;;1.12;100.00
21902;BME280;11115;46.038;14.612;2022-12-15T11:51:44;97683.31;;;1.26;100.00
21902;BME280;11115;46.038;14.612;2022-12-15T11:54:28;97670.78;;;1.25;100.00
21902;BME280;11115;46.038;14.612;2022-12-15T12:08:44;97688.28;;;1.39;100.00
21902;BME280;11115;46.038;14.612;2022-12-15T12:11:40;97684.69;;;1.33;100.00
21902;BME280;11115;46.038;14.612;2022-12-15T12:14:38;97681.16;;;1.28;100.00
21902;BME280;11115;46.038;14.612;2022-12-15T12:17:48;97686.31;;;1.29;100.00
21902;BME280;11115;46.038;14.612;2022-12-15T12:20:26;97684.97;;;1.27;100.00
21902;BME280;11115;46.038;14.612;2022-12-15T12:25:30;97665.00;;;1.01;100.00
21902;BME280;11115;46.038;14.612;2022-12-15T12:28:23;97696.13;;;1.30;100.00
21902;BME280;11115;46.038;14.612;2022-12-15T12:30:50;97694.22;;;1.26;100.00
21902;BME280;11115;46.038;14.612;2022-12-15T12:33:31;97704.31;;;1.25;100.00
21902;BME280;11115;46.038;14.612;2022-12-15T12:36:05;97707.84;;;1.26;100.00
21902;BME280;11115;46.038;14.612;2022-12-15T12:38:46;97704.84;;;1.27;100.00
21902;BME280;11115;46.038;14.612;2022-12-15T12:41:25;97716.03;;;1.31;100.00
21902;BME280;11115;46.038;14.612;2022-12-15T12:43:56;97685.16;;;1.05;100.00
21902;BME280;11115;46.038;14.612;2022-12-15T12:46:30;97717.13;;;1.30;100.00
21902;BME280;11115;46.038;14.612;2022-12-15T12:51:41;97688.75;;;1.20;100.00
21902;BME280;11115;46.038;14.612;2022-12-15T13:00:00;97700.81;;;1.45;100.00
21902;BME280;11115;46.038;14.612;2022-12-15T13:05:20;97697.81;;;1.51;100.00
21902;BME280;11115;46.038;14.612;2022-12-15T13:10:33;97688.31;;;1.69;100.00
21902;BME280;11115;46.038;14.612;2022-12-15T13:15:46;97689.94;;;1.65;100.00
21902;BME280;11115;46.038;14.612;2022-12-15T13:29:41;97682.59;;;1.56;100.00
21902;BME280;11115;46.038;14.612;2022-12-15T13:35:25;97690.75;;;1.56;100.00
21902;BME280;11115;46.038;14.612;2022-12-15T13:38:00;97688.28;;;1.54;100.00
21902;BME280;11115;46.038;14.612;2022-12-15T13:48:15;97676.59;;;1.64;100.00
21902;BME280;11115;46.038;14.612;2022-12-15T13:50:47;97684.72;;;1.48;100.00
21902;BME280;11115;46.038;14.612;2022-12-15T13:53:20;97678.50;;;1.58;100.00
21902;BME280;11115;46.038;14.612;2022-12-15T13:56:02;97655.84;;;1.52;100.00
21902;BME280;11115;46.038;14.612;2022-12-15T13:58:42;97666.78;;;1.58;100.00
21902;BME280;11115;46.038;14.612;2022-12-15T14:01:24;97669.19;;;1.49;100.00
21902;BME280;11115;46.038;14.612;2022-12-15T14:04:08;97679.81;;;1.35;100.00
21902;BME280;11115;46.038;14.612;2022-12-15T14:07:06;97658.28;;;1.44;100.00
21902;BME280;11115;46.038;14.612;2022-12-15T14:09:36;97670.28;;;1.48;100.00
21902;BME280;11115;46.038;14.612;2022-12-15T14:12:07;97668.94;;;1.45;100.00
21902;BME280;11115;46.038;14.612;2022-12-15T14:14:45;97661.28;;;1.42;100.00
21902;BME280;11115;46.038;14.612;2022-12-15T14:17:16;97667.84;;;1.46;100.00
21902;BME280;11115;46.038;14.612;2022-12-15T14:19:46;97667.28;;;1.44;100.00
21902;BME280;11115;46.038;14.612;2022-12-15T14:22:19;97661.84;;;1.39;100.00
21902;BME280;11115;46.038;14.612;2022-12-15T14:25:15;97651.22;;;1.43;100.00
21902;BME280;11115;46.038;14.612;2022-12-15T14:27:44;97647.66;;;1.52;100.00
21902;BME280;11115;46.038;14.612;2022-12-15T14:30:32;97653.94;;;1.53;100.00
21902;BME280;11115;46.038;14.612;2022-12-15T14:33:05;97658.59;;;1.63;100.00
21902;BME280;11115;46.038;14.612;2022-12-15T14:35:38;97656.66;;;1.48;100.00
21902;BME280;11115;46.038;14.612;2022-12-15T14:38:13;97659.13;;;1.44;100.00
21902;BME280;11115;46.038;14.612;2022-12-15T14:40:42;97663.19;;;1.47;100.00
21902;BME280;11115;46.038;14.612;2022-12-15T14:43:20;97652.59;;;1.56;100.00
21902;BME280;11115;46.038;14.612;2022-12-15T14:46:18;97640.88;;;1.55;100.00
21902;BME280;11115;46.038;14.612;2022-12-15T14:48:52;97643.59;;;1.55;100.00
21902;BME280;11115;46.038;14.612;2022-12-15T14:51:24;97640.31;;;1.53;100.00
21902;BME280;11115;46.038;14.612;2022-12-15T14:53:53;97650.97;;;1.55;100.00
21902;BME280;11115;46.038;14.612;2022-12-15T14:56:27;97651.78;;;1.60;100.00
21902;BME280;11115;46.038;14.612;2022-12-15T14:59:00;97655.59;;;1.64;100.00
21902;BME280;11115;46.038;14.612;2022-12-15T15:01:50;97646.31;;;1.60;100.00